createdAt,value
2019-03-28T00:00:40.369Z,84.47
2019-03-28T00:01:40.341Z,84.47
2019-03-28T00:02:40.331Z,84.47
2019-03-28T00:03:40.306Z,84.47
2019-03-28T00:04:40.299Z,84.56
2019-03-28T00:05:40.286Z,84.56
2019-03-28T00:06:40.307Z,84.56
2019-03-28T00:07:40.262Z,84.56
2019-03-28T00:08:40.248Z,84.67
2019-03-28T00:09:40.255Z,84.67
2019-03-28T00:10:40.219Z,84.77
2019-03-28T00:11:40.262Z,84.77
2019-03-28T00:12:40.346Z,84.77
2019-03-28T00:13:40.202Z,84.77
2019-03-28T00:14:40.190Z,84.77
2019-03-28T00:15:40.208Z,84.88
2019-03-28T00:16:40.159Z,84.88
2019-03-28T00:17:40.139Z,84.98
2019-03-28T00:18:40.140Z,85.08
2019-03-28T00:19:40.134Z,85.18
2019-03-28T00:20:40.139Z,85.18
2019-03-28T00:21:40.121Z,85.18
2019-03-28T00:22:40.090Z,85.28
2019-03-28T00:23:40.077Z,85.39
2019-03-28T00:24:40.099Z,85.49
2019-03-28T00:25:40.061Z,85.60
2019-03-28T00:26:40.071Z,85.80
2019-03-28T00:27:40.092Z,85.90
2019-03-28T00:28:40.019Z,86.00
2019-03-28T00:29:40.014Z,86.00
2019-03-28T00:30:40.002Z,85.94
2019-03-28T00:31:39.998Z,85.94
2019-03-28T00:32:39.980Z,85.94
2019-03-28T00:33:40.000Z,85.94
2019-03-28T00:34:39.950Z,85.94
2019-03-28T00:35:39.940Z,85.84
2019-03-28T00:36:39.950Z,85.94
2019-03-28T00:37:39.933Z,85.84
2019-03-28T00:38:39.950Z,85.84
2019-03-28T00:39:40.204Z,85.84
2019-03-28T00:40:39.890Z,85.84
2019-03-28T00:41:39.880Z,85.74
2019-03-28T00:42:39.930Z,85.74
2019-03-28T00:43:39.851Z,85.74
2019-03-28T00:44:39.841Z,85.74
2019-03-28T00:45:39.832Z,85.74
2019-03-28T00:46:39.829Z,85.84
2019-03-28T00:47:39.819Z,85.84
2019-03-28T00:48:39.830Z,85.94
2019-03-28T00:49:39.791Z,86.05
2019-03-28T00:50:39.781Z,86.05
2019-03-28T00:51:41.786Z,86.25
2019-03-28T00:52:39.760Z,86.35
2019-03-28T00:53:39.750Z,86.25
2019-03-28T00:54:39.792Z,86.35
2019-03-28T00:55:39.721Z,86.46
2019-03-28T00:56:46.864Z,86.35
2019-03-28T00:57:40.707Z,86.35
2019-03-28T00:58:39.701Z,86.35
2019-03-28T00:59:39.679Z,86.35
2019-03-28T01:00:40.174Z,86.25
2019-03-28T01:01:39.673Z,86.08
2019-03-28T01:02:39.642Z,85.98
2019-03-28T01:03:39.642Z,86.08
2019-03-28T01:04:39.622Z,86.08
2019-03-28T01:05:39.621Z,86.08
2019-03-28T01:06:39.640Z,86.19
2019-03-28T01:07:39.583Z,86.19
2019-03-28T01:08:39.582Z,86.08
2019-03-28T01:09:39.615Z,86.19
2019-03-28T01:10:39.562Z,86.19
2019-03-28T01:11:39.568Z,86.29
2019-03-28T01:12:39.572Z,86.29
2019-03-28T01:13:39.535Z,86.40
2019-03-28T01:14:39.525Z,86.29
2019-03-28T01:15:39.511Z,86.40
2019-03-28T01:16:39.610Z,86.50
2019-03-28T01:17:39.534Z,86.70
2019-03-28T01:18:39.473Z,86.80
2019-03-28T01:19:39.469Z,86.80
2019-03-28T01:20:39.469Z,86.80
2019-03-28T01:21:39.434Z,86.80
2019-03-28T01:22:39.424Z,87.01
2019-03-28T01:23:39.486Z,87.12
2019-03-28T01:24:39.427Z,87.22
2019-03-28T01:25:39.393Z,87.32
2019-03-28T01:26:39.383Z,87.32
2019-03-28T01:27:39.376Z,87.42
2019-03-28T01:28:39.366Z,87.42
2019-03-28T01:29:39.416Z,87.42
2019-03-28T01:30:39.341Z,87.42
2019-03-28T01:31:39.333Z,87.32
2019-03-28T01:32:39.324Z,87.32
2019-03-28T01:33:39.345Z,87.32
2019-03-28T01:34:39.303Z,87.32
2019-03-28T01:35:39.292Z,87.32
2019-03-28T01:36:39.281Z,87.32
2019-03-28T01:37:39.323Z,87.32
2019-03-28T01:38:39.254Z,87.32
2019-03-28T01:39:39.246Z,87.32
2019-03-28T01:40:39.264Z,87.22
2019-03-28T01:41:39.224Z,87.22
2019-03-28T01:42:39.214Z,87.12
2019-03-28T01:43:39.217Z,87.12
2019-03-28T01:44:39.213Z,87.22
2019-03-28T01:45:39.173Z,87.32
2019-03-28T01:46:39.173Z,87.42
2019-03-28T01:47:39.304Z,87.36
2019-03-28T01:48:39.185Z,87.36
2019-03-28T01:49:39.131Z,87.36
2019-03-28T01:50:39.185Z,87.46
2019-03-28T01:51:39.111Z,87.57
2019-03-28T01:52:39.096Z,87.67
2019-03-28T01:53:39.084Z,87.77
2019-03-28T01:54:39.074Z,87.77
2019-03-28T01:55:39.064Z,87.77
2019-03-28T01:56:39.065Z,87.67
2019-03-28T01:57:39.483Z,87.77
2019-03-28T01:58:39.036Z,87.77
2019-03-28T01:59:39.027Z,87.77
2019-03-28T02:00:39.005Z,87.77
2019-03-28T02:01:39.054Z,87.77
2019-03-28T02:02:39.086Z,87.67
2019-03-28T02:03:38.975Z,87.67
2019-03-28T02:04:38.975Z,87.77
2019-03-28T02:05:38.962Z,87.77
2019-03-28T02:06:38.953Z,87.87
2019-03-28T02:07:38.934Z,87.87
2019-03-28T02:08:38.946Z,87.87
2019-03-28T02:09:38.907Z,87.87
2019-03-28T02:10:38.902Z,87.77
2019-03-28T02:11:38.885Z,87.77
2019-03-28T02:12:38.875Z,87.87
2019-03-28T02:13:38.895Z,87.87
2019-03-28T02:14:38.865Z,87.77
2019-03-28T02:15:38.846Z,87.77
2019-03-28T02:16:38.835Z,87.77
2019-03-28T02:17:38.828Z,87.77
2019-03-28T02:18:38.899Z,87.77
2019-03-28T02:19:38.818Z,87.87
2019-03-28T02:20:38.797Z,87.87
2019-03-28T02:21:38.776Z,87.87
2019-03-28T02:22:38.766Z,87.98
2019-03-28T02:23:38.784Z,87.98
2019-03-28T02:24:38.755Z,87.98
2019-03-28T02:25:38.856Z,87.98
2019-03-28T02:26:38.726Z,87.98
2019-03-28T02:27:38.723Z,87.98
2019-03-28T02:28:38.706Z,88.08
2019-03-28T02:29:38.685Z,88.08
2019-03-28T02:30:38.689Z,88.18
2019-03-28T02:31:38.715Z,88.18
2019-03-28T02:32:38.681Z,88.18
2019-03-28T02:33:38.739Z,88.18
2019-03-28T02:34:38.637Z,88.18
2019-03-28T02:35:38.627Z,88.18
2019-03-28T02:36:38.625Z,88.29
2019-03-28T02:37:38.613Z,88.39
2019-03-28T02:38:38.603Z,88.49
2019-03-28T02:39:38.618Z,88.49
2019-03-28T02:40:38.586Z,88.49
2019-03-28T02:41:38.568Z,88.49
2019-03-28T02:42:38.557Z,88.49
2019-03-28T02:43:38.549Z,88.49
2019-03-28T02:44:38.567Z,88.49
2019-03-28T02:45:38.528Z,88.39
2019-03-28T02:46:38.512Z,88.39
2019-03-28T02:47:38.498Z,88.39
2019-03-28T02:48:38.531Z,88.49
2019-03-28T02:49:38.549Z,88.59
2019-03-28T02:50:38.470Z,88.59
2019-03-28T02:51:38.491Z,88.59
2019-03-28T02:52:38.447Z,88.59
2019-03-28T02:53:39.519Z,88.49
2019-03-28T02:54:38.422Z,88.39
2019-03-28T02:55:38.413Z,88.29
2019-03-28T02:56:38.408Z,88.39
2019-03-28T02:57:41.835Z,88.49
2019-03-28T02:58:38.390Z,88.59
2019-03-28T02:59:38.377Z,88.70
2019-03-28T03:00:38.358Z,88.70
2019-03-28T03:01:38.347Z,88.49
2019-03-28T03:02:38.377Z,88.49
2019-03-28T03:03:38.317Z,88.39
2019-03-28T03:04:38.308Z,88.39
2019-03-28T03:05:38.297Z,88.49
2019-03-28T03:06:38.290Z,88.49
2019-03-28T03:07:38.313Z,88.59
2019-03-28T03:08:38.273Z,88.70
2019-03-28T03:09:38.248Z,88.70
2019-03-28T03:10:38.246Z,88.70
2019-03-28T03:11:38.248Z,88.80
2019-03-28T03:12:38.247Z,88.90
2019-03-28T03:13:38.242Z,88.90
2019-03-28T03:14:38.261Z,88.90
2019-03-28T03:15:38.192Z,88.80
2019-03-28T03:16:38.243Z,88.80
2019-03-28T03:17:38.168Z,88.80
2019-03-28T03:18:38.201Z,88.80
2019-03-28T03:19:38.152Z,88.90
2019-03-28T03:20:38.138Z,88.90
2019-03-28T03:21:38.121Z,89.01
2019-03-28T03:22:38.112Z,89.01
2019-03-28T03:23:38.109Z,89.01
2019-03-28T03:24:38.118Z,89.01
2019-03-28T03:25:38.072Z,89.11
2019-03-28T03:26:38.058Z,89.11
2019-03-28T03:27:38.051Z,89.01
2019-03-28T03:28:38.048Z,89.01
2019-03-28T03:29:38.047Z,88.90
2019-03-28T03:30:38.038Z,88.80
2019-03-28T03:31:38.031Z,88.80
2019-03-28T03:32:38.157Z,88.80
2019-03-28T03:33:38.076Z,88.80
2019-03-28T03:34:38.002Z,88.80
2019-03-28T03:35:38.000Z,88.80
2019-03-28T03:36:37.973Z,88.80
2019-03-28T03:37:37.944Z,88.80
2019-03-28T03:38:37.950Z,88.80
2019-03-28T03:39:37.960Z,88.80
2019-03-28T03:40:37.899Z,88.80
2019-03-28T03:41:37.898Z,88.90
2019-03-28T03:42:37.894Z,88.80
2019-03-28T03:43:37.888Z,88.80
2019-03-28T03:44:37.882Z,88.80
2019-03-28T03:45:37.917Z,88.90
2019-03-28T03:46:37.849Z,89.01
2019-03-28T03:47:37.831Z,89.11
2019-03-28T03:48:38.667Z,89.22
2019-03-28T03:49:37.809Z,89.31
2019-03-28T03:50:37.851Z,89.42
2019-03-28T03:51:37.803Z,89.52
2019-03-28T03:52:37.781Z,89.62
2019-03-28T03:53:37.762Z,89.62
2019-03-28T03:54:37.810Z,89.73
2019-03-28T03:55:37.740Z,89.83
2019-03-28T03:56:37.751Z,89.83
2019-03-28T03:57:37.721Z,89.94
2019-03-28T03:58:37.711Z,90.03
2019-03-28T03:59:37.786Z,90.03
2019-03-28T04:00:37.692Z,90.03
2019-03-28T04:01:37.718Z,90.03
2019-03-28T04:02:37.661Z,90.03
2019-03-28T04:03:37.652Z,90.03
2019-03-28T04:04:37.651Z,90.14
2019-03-28T04:05:38.559Z,90.14
2019-03-28T04:06:37.704Z,90.24
2019-03-28T04:07:37.611Z,90.34
2019-03-28T04:08:37.590Z,90.45
2019-03-28T04:09:37.603Z,90.45
2019-03-28T04:10:37.580Z,90.55
2019-03-28T04:11:37.566Z,90.55
2019-03-28T04:12:37.620Z,90.55
2019-03-28T04:13:37.541Z,90.55
2019-03-28T04:14:37.530Z,90.66
2019-03-28T04:15:38.040Z,90.66
2019-03-28T04:16:37.524Z,90.75
2019-03-28T04:17:37.554Z,90.75
2019-03-28T04:18:37.535Z,90.90
2019-03-28T04:19:37.513Z,91.00
2019-03-28T04:20:37.472Z,91.00
2019-03-28T04:21:37.453Z,91.00
2019-03-28T04:22:37.512Z,91.00
2019-03-28T04:23:37.445Z,91.00
2019-03-28T04:24:37.462Z,91.00
2019-03-28T04:25:37.463Z,91.00
2019-03-28T04:26:37.402Z,90.90
2019-03-28T04:27:37.392Z,90.80
2019-03-28T04:28:38.508Z,90.80
2019-03-28T04:29:37.368Z,90.80
2019-03-28T04:30:37.365Z,90.80
2019-03-28T04:31:37.393Z,90.90
2019-03-28T04:32:37.330Z,91.00
2019-03-28T04:33:37.321Z,91.00
2019-03-28T04:34:37.322Z,91.00
2019-03-28T04:35:37.370Z,91.00
2019-03-28T04:36:37.301Z,91.11
2019-03-28T04:37:37.273Z,91.11
2019-03-28T04:38:37.275Z,91.11
2019-03-28T04:39:37.252Z,91.11
2019-03-28T04:40:37.251Z,91.11
2019-03-28T04:41:37.266Z,91.11
2019-03-28T04:42:37.265Z,91.11
2019-03-28T04:43:37.213Z,91.11
2019-03-28T04:44:37.202Z,91.21
2019-03-28T04:45:37.194Z,91.21
2019-03-28T04:46:37.233Z,91.21
2019-03-28T04:47:37.162Z,91.21
2019-03-28T04:48:37.163Z,91.21
2019-03-28T04:49:37.154Z,91.21
2019-03-28T04:50:37.136Z,91.21
2019-03-28T04:51:37.163Z,91.21
2019-03-28T04:52:37.160Z,91.21
2019-03-28T04:53:37.587Z,91.21
2019-03-28T04:54:37.096Z,91.21
2019-03-28T04:55:37.083Z,91.21
2019-03-28T04:56:37.113Z,91.21
2019-03-28T04:57:37.082Z,91.21
2019-03-28T04:58:44.502Z,91.21
2019-03-28T04:59:38.033Z,91.21
2019-03-28T05:00:37.054Z,91.11
2019-03-28T05:01:37.012Z,91.11
2019-03-28T05:02:37.003Z,91.11
2019-03-28T05:03:37.008Z,91.11
2019-03-28T05:04:36.973Z,91.11
2019-03-28T05:05:36.989Z,91.11
2019-03-28T05:06:38.135Z,91.11
2019-03-28T05:07:36.944Z,91.11
2019-03-28T05:08:36.934Z,91.11
2019-03-28T05:09:36.933Z,91.11
2019-03-28T05:10:36.937Z,91.11
2019-03-28T05:11:36.903Z,91.11
2019-03-28T05:12:36.904Z,91.11
2019-03-28T05:13:36.882Z,91.11
2019-03-28T05:14:36.883Z,91.11
2019-03-28T05:15:36.877Z,91.11
2019-03-28T05:16:36.853Z,91.15
2019-03-28T05:17:36.844Z,91.11
2019-03-28T05:18:36.833Z,91.11
2019-03-28T05:19:36.868Z,91.15
2019-03-28T05:20:36.812Z,91.05
2019-03-28T05:21:36.795Z,91.05
2019-03-28T05:22:36.785Z,91.05
2019-03-28T05:23:36.774Z,91.05
2019-03-28T05:24:36.777Z,91.05
2019-03-28T05:25:36.774Z,91.05
2019-03-28T05:26:36.736Z,91.05
2019-03-28T05:27:36.738Z,91.05
2019-03-28T05:28:36.727Z,91.05
2019-03-28T05:29:36.704Z,91.05
2019-03-28T05:30:36.710Z,91.05
2019-03-28T05:31:36.695Z,91.05
2019-03-28T05:32:36.675Z,91.05
2019-03-28T05:33:36.665Z,91.05
2019-03-28T05:34:36.688Z,91.15
2019-03-28T05:35:36.654Z,91.05
2019-03-28T05:36:36.636Z,91.05
2019-03-28T05:37:36.717Z,91.05
2019-03-28T05:38:36.604Z,91.05
2019-03-28T05:39:36.599Z,91.05
2019-03-28T05:40:36.783Z,91.05
2019-03-28T05:41:36.585Z,91.05
2019-03-28T05:42:36.575Z,91.00
2019-03-28T05:43:36.569Z,91.00
2019-03-28T05:44:36.545Z,91.00
2019-03-28T05:45:36.551Z,91.00
2019-03-28T05:46:36.545Z,91.00
2019-03-28T05:47:36.515Z,91.00
2019-03-28T05:48:36.505Z,91.00
2019-03-28T05:49:36.486Z,91.00
2019-03-28T05:50:36.473Z,91.00
2019-03-28T05:51:36.466Z,90.90
2019-03-28T05:52:36.512Z,90.90
2019-03-28T05:53:36.445Z,90.80
2019-03-28T05:54:36.438Z,90.69
2019-03-28T05:55:36.428Z,90.69
2019-03-28T05:56:36.416Z,90.59
2019-03-28T05:57:36.409Z,90.59
2019-03-28T05:58:36.405Z,90.59
2019-03-28T05:59:36.385Z,90.49
2019-03-28T06:00:38.944Z,90.39
2019-03-28T06:01:36.369Z,90.39
2019-03-28T06:02:36.346Z,90.39
2019-03-28T06:03:36.336Z,90.28
2019-03-28T06:04:36.336Z,90.28
2019-03-28T06:05:36.315Z,90.14
2019-03-28T06:06:36.300Z,90.03
2019-03-28T06:07:36.483Z,90.03
2019-03-28T06:08:36.275Z,90.03
2019-03-28T06:09:36.276Z,90.03
2019-03-28T06:10:36.491Z,89.94
2019-03-28T06:11:36.288Z,89.83
2019-03-28T06:12:36.227Z,89.83
2019-03-28T06:13:36.240Z,89.73
2019-03-28T06:14:36.206Z,89.73
2019-03-28T06:15:36.197Z,89.62
2019-03-28T06:16:36.257Z,89.62
2019-03-28T06:17:36.185Z,89.52
2019-03-28T06:18:36.166Z,89.52
2019-03-28T06:19:36.147Z,89.38
2019-03-28T06:20:36.136Z,89.38
2019-03-28T06:21:36.147Z,89.28
2019-03-28T06:22:36.136Z,89.17
2019-03-28T06:23:36.123Z,89.07
2019-03-28T06:24:36.148Z,89.07
2019-03-28T06:25:36.112Z,89.07
2019-03-28T06:26:36.076Z,89.07
2019-03-28T06:27:36.071Z,89.07
2019-03-28T06:28:36.057Z,88.96
2019-03-28T06:29:36.051Z,88.96
2019-03-28T06:30:36.087Z,88.96
2019-03-28T06:31:36.342Z,88.96
2019-03-28T06:32:42.706Z,89.07
2019-03-28T06:33:38.449Z,89.07
2019-03-28T06:34:35.989Z,89.13
2019-03-28T06:35:35.980Z,89.03
2019-03-28T06:36:35.976Z,88.82
2019-03-28T06:37:35.961Z,88.72
2019-03-28T06:38:35.937Z,88.41
2019-03-28T06:39:36.613Z,88.17
2019-03-28T06:40:35.928Z,87.96
2019-03-28T06:41:35.928Z,87.96
2019-03-28T06:42:35.907Z,87.85
2019-03-28T06:43:35.902Z,87.71
2019-03-28T06:44:35.876Z,87.51
2019-03-28T06:45:35.869Z,87.20
2019-03-28T06:46:35.868Z,86.99
2019-03-28T06:47:35.848Z,86.89
2019-03-28T06:48:35.832Z,86.48
2019-03-28T06:49:35.818Z,86.44
2019-03-28T06:50:35.814Z,86.33
2019-03-28T06:51:35.839Z,86.44
2019-03-28T06:52:35.811Z,86.44
2019-03-28T06:53:35.779Z,86.44
2019-03-28T06:54:35.769Z,86.13
2019-03-28T06:55:37.008Z,86.13
2019-03-28T06:56:35.749Z,85.99
2019-03-28T06:57:35.759Z,85.78
2019-03-28T06:58:35.724Z,85.68
2019-03-28T06:59:37.505Z,85.27
2019-03-28T07:00:35.709Z,85.06
2019-03-28T07:01:35.690Z,84.86
2019-03-28T07:02:35.679Z,85.27
2019-03-28T07:03:35.679Z,85.17
2019-03-28T07:04:35.658Z,85.17
2019-03-28T07:05:35.653Z,85.06
2019-03-28T07:06:35.637Z,84.86
2019-03-28T07:07:35.621Z,84.76
2019-03-28T07:08:35.633Z,84.55
2019-03-28T07:09:35.601Z,84.25
2019-03-28T07:10:36.451Z,84.25
2019-03-28T07:11:35.590Z,84.25
2019-03-28T07:12:35.571Z,84.45
2019-03-28T07:13:36.364Z,84.45
2019-03-28T07:14:35.553Z,84.25
2019-03-28T07:15:36.879Z,84.14
2019-03-28T07:16:35.541Z,84.00
2019-03-28T07:17:35.521Z,83.80
2019-03-28T07:18:35.525Z,83.80
2019-03-28T07:19:35.492Z,83.59
2019-03-28T07:20:35.482Z,83.80
2019-03-28T07:21:35.504Z,83.80
2019-03-28T07:22:35.470Z,83.69
2019-03-28T07:23:35.485Z,83.55
2019-03-28T07:24:35.456Z,83.55
2019-03-28T07:25:35.433Z,83.04
2019-03-28T07:26:35.462Z,82.83
2019-03-28T07:27:35.412Z,82.39
2019-03-28T07:28:35.415Z,82.39
2019-03-28T07:29:35.392Z,82.55
2019-03-28T07:30:35.371Z,82.24
2019-03-28T07:31:35.730Z,81.73
2019-03-28T07:32:35.392Z,81.22
2019-03-28T07:33:35.365Z,80.77
2019-03-28T07:34:35.382Z,79.75
2019-03-28T07:35:35.322Z,79.75
2019-03-28T07:36:35.312Z,79.30
2019-03-28T07:37:35.312Z,79.16
2019-03-28T07:38:35.318Z,78.75
2019-03-28T07:39:35.283Z,78.20
2019-03-28T07:40:35.303Z,78.52
2019-03-28T07:41:42.302Z,77.86
2019-03-28T07:42:35.251Z,77.22
2019-03-28T07:43:35.233Z,77.11
2019-03-28T07:44:37.516Z,76.26
2019-03-28T07:45:35.211Z,75.34
2019-03-28T07:46:35.236Z,75.44
2019-03-28T07:47:35.198Z,75.20
2019-03-28T07:48:35.183Z,74.59
2019-03-28T07:49:37.580Z,74.49
2019-03-28T07:50:35.154Z,74.38
2019-03-28T07:51:35.194Z,74.11
2019-03-28T07:52:35.155Z,73.91
2019-03-28T07:53:35.134Z,74.52
2019-03-28T07:54:35.121Z,74.11
2019-03-28T07:55:35.119Z,74.18
2019-03-28T07:56:35.092Z,73.77
2019-03-28T07:57:35.143Z,74.69
2019-03-28T07:58:35.403Z,74.38
2019-03-28T07:59:35.064Z,74.35
2019-03-28T08:00:35.135Z,74.05
2019-03-28T08:01:35.058Z,73.94
2019-03-28T08:02:35.036Z,73.64
2019-03-28T08:03:35.048Z,74.15
2019-03-28T08:04:35.017Z,74.15
2019-03-28T08:05:34.996Z,74.25
2019-03-28T08:06:35.000Z,74.05
2019-03-28T08:07:44.807Z,73.23
2019-03-28T08:08:39.029Z,73.67
2019-03-28T08:09:36.878Z,73.36
2019-03-28T08:10:35.017Z,73.30
2019-03-28T08:11:35.105Z,73.54
2019-03-28T08:12:34.926Z,74.46
2019-03-28T08:13:34.918Z,74.87
2019-03-28T08:14:34.918Z,75.51
2019-03-28T08:15:34.888Z,75.58
2019-03-28T08:16:34.868Z,75.41
2019-03-28T08:17:34.858Z,75.27
2019-03-28T08:18:34.848Z,75.31
2019-03-28T08:19:34.856Z,75.00
2019-03-28T08:20:34.828Z,75.51
2019-03-28T08:21:34.841Z,75.41
2019-03-28T08:22:34.808Z,75.07
2019-03-28T08:23:35.436Z,74.76
2019-03-28T08:24:34.808Z,74.66
2019-03-28T08:25:34.839Z,74.15
2019-03-28T08:26:34.783Z,74.52
2019-03-28T08:27:34.772Z,74.32
2019-03-28T08:28:34.752Z,74.29
2019-03-28T08:29:34.728Z,73.98
2019-03-28T08:30:34.756Z,73.54
2019-03-28T08:31:34.743Z,72.52
2019-03-28T08:32:34.849Z,72.17
2019-03-28T08:33:34.702Z,71.36
2019-03-28T08:34:34.681Z,71.97
2019-03-28T08:35:34.668Z,71.46
2019-03-28T08:36:34.700Z,71.53
2019-03-28T08:37:34.639Z,71.30
2019-03-28T08:38:34.643Z,71.09
2019-03-28T08:39:34.631Z,70.55
2019-03-28T08:40:34.610Z,69.43
2019-03-28T08:41:34.615Z,69.02
2019-03-28T08:42:34.614Z,68.51
2019-03-28T08:43:35.988Z,69.02
2019-03-28T08:44:34.561Z,68.92
2019-03-28T08:45:34.670Z,69.19
2019-03-28T08:46:34.558Z,68.31
2019-03-28T08:47:34.540Z,68.01
2019-03-28T08:48:34.536Z,67.93
2019-03-28T08:49:34.530Z,68.78
2019-03-28T08:50:34.505Z,69.09
2019-03-28T08:51:34.503Z,70.21
2019-03-28T08:52:34.503Z,69.39
2019-03-28T08:53:34.473Z,70.00
2019-03-28T08:54:34.464Z,69.49
2019-03-28T08:55:34.454Z,68.27
2019-03-28T08:56:34.598Z,68.54
2019-03-28T08:57:34.446Z,68.95
2019-03-28T08:58:37.858Z,69.15
2019-03-28T08:59:34.416Z,69.87
2019-03-28T09:00:50.057Z,68.51
2019-03-28T09:01:35.375Z,68.92
2019-03-28T09:02:34.367Z,67.80
2019-03-28T09:03:34.366Z,67.87
2019-03-28T09:04:34.356Z,67.77
2019-03-28T09:05:34.454Z,67.46
2019-03-28T09:06:34.329Z,67.87
2019-03-28T09:07:34.369Z,68.04
2019-03-28T09:08:34.314Z,67.94
2019-03-28T09:09:34.310Z,66.52
2019-03-28T09:10:34.367Z,67.40
2019-03-28T09:11:34.267Z,66.99
2019-03-28T09:12:35.308Z,65.64
2019-03-28T09:13:34.265Z,65.74
2019-03-28T09:14:34.290Z,65.74
2019-03-28T09:15:43.453Z,65.54
2019-03-28T09:16:35.216Z,65.03
2019-03-28T09:17:34.224Z,64.62
2019-03-28T09:18:34.208Z,64.32
2019-03-28T09:19:34.189Z,64.93
2019-03-28T09:20:34.592Z,64.49
2019-03-28T09:21:34.192Z,64.18
2019-03-28T09:22:34.180Z,64.29
2019-03-28T09:23:34.157Z,64.49
2019-03-28T09:24:34.151Z,64.18
2019-03-28T09:25:34.180Z,63.17
2019-03-28T09:26:34.110Z,64.39
2019-03-28T09:27:34.114Z,63.78
2019-03-28T09:28:34.084Z,64.36
2019-03-28T09:29:34.070Z,63.14
2019-03-28T09:30:47.559Z,64.15
2019-03-28T09:31:35.108Z,63.95
2019-03-28T09:32:34.072Z,63.65
2019-03-28T09:33:34.054Z,64.06
2019-03-28T09:34:34.035Z,62.74
2019-03-28T09:35:34.023Z,62.63
2019-03-28T09:36:34.024Z,63.34
2019-03-28T09:37:34.023Z,63.55
2019-03-28T09:38:33.983Z,62.53
2019-03-28T09:39:33.983Z,63.34
2019-03-28T09:40:33.963Z,64.13
2019-03-28T09:41:33.942Z,64.33
2019-03-28T09:42:33.984Z,63.32
2019-03-28T09:43:33.923Z,63.11
2019-03-28T09:44:33.907Z,63.32
2019-03-28T09:45:33.906Z,63.92
2019-03-28T09:46:33.912Z,63.62
2019-03-28T09:47:33.947Z,62.30
2019-03-28T09:48:33.866Z,63.11
2019-03-28T09:49:33.866Z,63.04
2019-03-28T09:50:33.846Z,62.43
2019-03-28T09:51:35.346Z,62.33
2019-03-28T09:52:33.835Z,62.13
2019-03-28T09:53:33.868Z,61.93
2019-03-28T09:54:33.806Z,62.84
2019-03-28T09:55:33.797Z,62.91
2019-03-28T09:56:33.777Z,62.20
2019-03-28T09:57:33.823Z,63.42
2019-03-28T09:58:34.063Z,63.52
2019-03-28T09:59:33.757Z,62.57
2019-03-28T10:00:34.552Z,61.87
2019-03-28T10:01:33.718Z,61.56
2019-03-28T10:02:33.718Z,62.07
2019-03-28T10:03:33.748Z,61.46
2019-03-28T10:04:33.698Z,61.76
2019-03-28T10:05:33.680Z,61.76
2019-03-28T10:06:33.679Z,61.25
2019-03-28T10:07:33.658Z,62.27
2019-03-28T10:08:33.712Z,61.87
2019-03-28T10:09:33.653Z,62.48
2019-03-28T10:10:33.637Z,62.45
2019-03-28T10:11:33.620Z,59.91
2019-03-28T10:12:34.336Z,60.01
2019-03-28T10:13:33.613Z,60.72
2019-03-28T10:14:33.641Z,61.13
2019-03-28T10:15:36.792Z,59.70
2019-03-28T10:16:33.564Z,60.39
2019-03-28T10:17:33.560Z,60.69
2019-03-28T10:18:33.547Z,60.49
2019-03-28T10:19:33.565Z,60.69
2019-03-28T10:20:33.526Z,60.36
2019-03-28T10:21:33.502Z,60.36
2019-03-28T10:22:33.503Z,59.85
2019-03-28T10:23:33.496Z,59.45
2019-03-28T10:24:33.483Z,60.06
2019-03-28T10:25:33.536Z,59.85
2019-03-28T10:26:33.456Z,58.84
2019-03-28T10:27:33.444Z,59.25
2019-03-28T10:28:33.443Z,58.74
2019-03-28T10:29:33.415Z,59.05
2019-03-28T10:30:33.426Z,59.22
2019-03-28T10:31:33.455Z,58.51
2019-03-28T10:32:33.408Z,58.28
2019-03-28T10:33:33.385Z,56.86
2019-03-28T10:34:33.366Z,57.07
2019-03-28T10:35:33.363Z,57.04
2019-03-28T10:36:33.405Z,57.34
2019-03-28T10:37:33.335Z,56.02
2019-03-28T10:38:33.327Z,56.15
2019-03-28T10:39:33.318Z,56.18
2019-03-28T10:40:33.314Z,56.82
2019-03-28T10:41:33.329Z,58.03
2019-03-28T10:42:33.278Z,58.76
2019-03-28T10:43:33.289Z,58.56
2019-03-28T10:44:33.280Z,57.65
2019-03-28T10:45:33.714Z,59.50
2019-03-28T10:46:33.238Z,59.61
2019-03-28T10:47:33.230Z,57.30
2019-03-28T10:48:33.209Z,57.91
2019-03-28T10:49:33.210Z,58.72
2019-03-28T10:50:41.357Z,58.95
2019-03-28T10:51:34.200Z,58.65
2019-03-28T10:52:33.183Z,59.66
2019-03-28T10:53:33.182Z,59.99
2019-03-28T10:54:33.202Z,59.28
2019-03-28T10:55:33.133Z,59.69
2019-03-28T10:56:33.122Z,60.94
2019-03-28T10:57:33.122Z,60.13
2019-03-28T10:58:35.000Z,60.46
2019-03-28T10:59:33.142Z,60.56
2019-03-28T11:00:33.106Z,61.20
2019-03-28T11:01:47.971Z,61.91
2019-03-28T11:02:34.063Z,62.72
2019-03-28T11:03:33.073Z,61.71
2019-03-28T11:04:33.050Z,61.10
2019-03-28T11:05:33.053Z,61.40
2019-03-28T11:06:33.073Z,61.51
2019-03-28T11:07:33.022Z,61.33
2019-03-28T11:08:36.294Z,62.55
2019-03-28T11:09:33.007Z,62.04
2019-03-28T11:10:32.983Z,62.45
2019-03-28T11:11:32.964Z,62.85
2019-03-28T11:12:32.997Z,62.14
2019-03-28T11:13:32.949Z,62.14
2019-03-28T11:14:32.934Z,63.19
2019-03-28T11:15:32.928Z,63.19
2019-03-28T11:16:32.955Z,63.19
2019-03-28T11:17:32.896Z,63.70
2019-03-28T11:18:32.884Z,64.00
2019-03-28T11:19:32.874Z,64.20
2019-03-28T11:20:32.877Z,63.39
2019-03-28T11:21:34.352Z,63.29
2019-03-28T11:22:32.876Z,63.70
2019-03-28T11:23:32.880Z,63.70
2019-03-28T11:24:32.830Z,61.87
2019-03-28T11:25:32.816Z,62.78
2019-03-28T11:26:32.802Z,63.09
2019-03-28T11:27:32.786Z,62.78
2019-03-28T11:28:32.789Z,63.19
2019-03-28T11:29:33.748Z,63.09
2019-03-28T11:30:32.757Z,62.48
2019-03-28T11:31:45.617Z,62.37
2019-03-28T11:32:35.934Z,62.40
2019-03-28T11:33:32.796Z,63.53
2019-03-28T11:34:32.718Z,61.90
2019-03-28T11:35:32.874Z,62.10
2019-03-28T11:36:32.701Z,63.12
2019-03-28T11:37:32.678Z,63.12
2019-03-28T11:38:32.667Z,62.81
2019-03-28T11:39:32.678Z,63.32
2019-03-28T11:40:32.649Z,63.12
2019-03-28T11:41:32.630Z,62.81
2019-03-28T11:42:32.649Z,62.51
2019-03-28T11:43:32.619Z,63.22
2019-03-28T11:44:32.659Z,64.54
2019-03-28T11:45:32.589Z,63.53
2019-03-28T11:46:32.591Z,63.62
2019-03-28T11:47:32.579Z,62.81
2019-03-28T11:48:32.571Z,63.42
2019-03-28T11:49:32.560Z,63.62
2019-03-28T11:50:32.570Z,62.81
2019-03-28T11:51:32.530Z,62.40
2019-03-28T11:52:32.511Z,63.22
2019-03-28T11:53:32.500Z,62.51
2019-03-28T11:54:32.519Z,63.22
2019-03-28T11:55:32.516Z,63.12
2019-03-28T11:56:32.498Z,62.02
2019-03-28T11:57:32.461Z,62.13
2019-03-28T11:58:32.472Z,62.43
2019-03-28T11:59:33.150Z,62.63
2019-03-28T12:00:32.445Z,62.13
2019-03-28T12:01:32.435Z,62.33
2019-03-28T12:02:32.462Z,62.13
2019-03-28T12:03:32.415Z,63.45
2019-03-28T12:04:32.390Z,62.43
2019-03-28T12:05:32.375Z,61.52
2019-03-28T12:06:32.373Z,61.82
2019-03-28T12:07:32.362Z,62.33
2019-03-28T12:08:32.375Z,60.80
2019-03-28T12:09:32.342Z,61.00
2019-03-28T12:10:32.324Z,61.49
2019-03-28T12:11:32.322Z,60.88
2019-03-28T12:12:32.304Z,60.47
2019-03-28T12:13:44.238Z,60.37
2019-03-28T12:14:33.298Z,59.75
2019-03-28T12:15:32.272Z,60.16
2019-03-28T12:16:32.325Z,59.48
2019-03-28T12:17:32.253Z,59.68
2019-03-28T12:18:32.257Z,59.58
2019-03-28T12:19:32.297Z,59.38
2019-03-28T12:20:32.226Z,59.28
2019-03-28T12:21:32.204Z,59.48
2019-03-28T12:22:32.193Z,60.19
2019-03-28T12:23:32.258Z,60.80
2019-03-28T12:24:32.177Z,61.08
2019-03-28T12:25:32.155Z,61.18
2019-03-28T12:26:32.169Z,61.29
2019-03-28T12:27:32.155Z,61.90
2019-03-28T12:28:32.125Z,61.59
2019-03-28T12:29:35.565Z,62.30
2019-03-28T12:30:32.111Z,62.61
2019-03-28T12:31:33.421Z,62.10
2019-03-28T12:32:32.076Z,63.62
2019-03-28T12:33:32.076Z,62.30
2019-03-28T12:34:32.096Z,62.27
2019-03-28T12:35:32.057Z,61.87
2019-03-28T12:36:32.041Z,61.59
2019-03-28T12:37:32.026Z,61.90
2019-03-28T12:38:32.017Z,61.79
2019-03-28T12:39:32.047Z,61.38
2019-03-28T12:40:32.000Z,62.40
2019-03-28T12:41:31.990Z,62.51
2019-03-28T12:42:32.041Z,62.10
2019-03-28T12:43:31.969Z,62.20
2019-03-28T12:44:31.962Z,62.10
2019-03-28T12:45:31.971Z,61.29
2019-03-28T12:46:31.929Z,60.68
2019-03-28T12:47:42.330Z,61.79
2019-03-28T12:48:32.970Z,61.69
2019-03-28T12:49:31.889Z,61.08
2019-03-28T12:50:31.905Z,60.98
2019-03-28T12:51:31.883Z,60.77
2019-03-28T12:52:31.869Z,61.38